Date,TemperatureHighF,TemperatureAvgF,TemperatureLowF,DewpointHighF,DewpointAvgF,DewpointLowF,HumidityHigh,HumidityAvg,HumidityLow,PressureMaxIn,PressureMinIn,WindSpeedMaxMPH,WindSpeedAvgMPH,GustSpeedMaxMPH,PrecipitationSumIn
2013-1-1,39.4,35.1,31.6,33.1,29.0,27.0,84,78,71,29.81,29.67,18,12,21,0.00
2013-1-2,41.7,38.8,35.2,36.0,31.7,29.3,87,76,64,30.24,29.73,23,12,25,0.00
2013-1-3,42.4,38.8,34.9,39.1,33.3,27.5,90,81,68,30.25,30.14,31,18,36,0.08
2013-1-4,48.9,45.7,42.4,46.8,42.0,37.7,98,87,69,30.27,30.05,30,14,33,0.21
2013-1-5,48.9,45.0,41.0,46.0,41.8,39.6,99,89,79,30.21,30.05,24,13,28,0.00
2013-1-6,44.1,41.9,39.9,41.8,40.0,38.3,99,93,84,30.19,30.00,27,10,27,0.08
2013-1-7,44.4,39.4,37.4,42.3,38.3,36.4,99,96,88,30.21,30.06,18,6,19,0.07
2013-1-8,41.2,39.4,37.4,40.6,38.7,37.1,99,97,94,30.18,30.03,12,6,14,0.07
2013-1-9,42.8,40.5,39.2,40.7,39.2,36.2,99,95,88,30.06,29.86,14,8,17,0.00
2013-1-10,39.2,37.2,35.6,37.0,32.9,29.7,95,85,74,29.87,29.65,24,14,25,0.11
2013-1-11,35.8,28.6,25.5,31.4,21.5,15.0,99,75,61,29.94,29.65,21,11,22,0.00
2013-1-12,31.6,25.8,21.4,20.4,16.7,13.4,79,68,55,30.00,29.92,14,7,16,0.00
2013-1-13,29.7,24.8,21.7,20.1,17.3,13.5,80,73,57,29.99,29.95,14,6,15,0.00
2013-1-14,30.6,25.7,22.3,27.2,22.0,19.3,90,85,77,29.96,29.82,11,5,14,0.00
2013-1-15,30.2,24.5,19.0,24.3,20.2,15.0,88,83,67,29.85,29.67,10,4,11,0.00
2013-1-16,28.2,26.0,25.2,25.0,22.5,20.8,92,86,78,29.70,29.65,10,4,11,0.00
2013-1-17,27.5,25.7,24.1,23.0,21.6,18.5,89,84,75,29.79,29.66,17,11,20,0.00
2013-1-18,23.9,21.5,19.9,21.4,17.8,15.9,90,86,80,29.79,29.60,14,8,14,0.00
2013-1-19,22.5,19.5,17.6,16.2,13.8,11.9,85,78,69,29.60,29.46,15,6,17,0.00
2013-1-20,25.5,22.6,19.6,23.8,19.1,14.7,93,86,81,29.48,29.38,15,9,17,0.00
2013-1-21,26.4,25.0,21.2,24.4,23.0,18.8,93,92,90,29.52,29.36,12,5,12,0.00
2013-1-22,23.5,20.0,17.8,18.8,15.0,13.0,91,81,70,29.69,29.52,10,5,10,0.00
2013-1-23,23.9,21.2,19.0,18.8,16.5,12.6,85,82,75,29.73,29.67,9,5,10,0.00
2013-1-24,24.6,22.5,20.1,20.5,18.5,15.0,87,84,80,29.89,29.70,14,6,14,0.00
2013-1-25,23.4,18.8,11.3,16.6,13.6,6.7,84,80,72,30.04,29.89,12,6,13,0.00
2013-1-26,18.0,11.7,3.0,11.5,5.7,-3.1,83,76,66,29.99,29.87,14,5,14,0.00
2013-1-27,30.0,24.0,14.9,28.3,19.8,10.2,98,83,75,29.89,29.65,15,8,16,0.00
2013-1-28,37.6,33.8,28.9,33.2,31.0,28.5,99,90,77,30.00,29.67,17,9,20,0.04
2013-1-29,42.1,38.4,34.2,39.7,35.2,30.5,95,88,77,29.99,29.81,26,16,31,0.04
2013-1-30,54.5,48.3,41.5,48.8,44.1,37.3,95,86,71,29.84,29.68,36,20,40,0.27
2013-1-31,46.6,43.8,41.0,39.5,33.3,28.1,83,67,50,29.95,29.74,37,20,45,0.02